Weather at Sook Airport

Public forecast

Using degrees Celsius for public forecast. Weather courtesy of forecast.io.

Closest aviation weather report (METAR) to Sook Airport

Closest report is Kota Kinabalu International Airport, 50.2 nm (92.9 km) NNW. Retrieved 2022/08/17 15:30 UTC (23 minutes ago):

WBKK 171530Z 11005KT 080V150 9999 FEW014 25/23 Q1010 NOSIG

Closest aviation forecast (TAF) to Sook Airport

Closest forecast is Kota Kinabalu International Airport, 50.2 nm (92.9 km) NNW. Retrieved 2022/08/17 12:12 UTC (4 hours ago):

TAF WBKK 171100Z 1712/1812 11005KT 9999 FEW014 PROB40 TEMPO 1716/1720 5000 TSRA FEW010 FEW016CB SCT035 BECMG 1800/1802 27005KT